createdAt,value
2023-01-28T00:02:53.018Z,3.16
2023-01-28T00:17:53.047Z,2.02
2023-01-28T00:32:52.926Z,1.98
2023-01-28T00:47:52.906Z,1.53
2023-01-28T01:02:52.902Z,1.99
2023-01-28T01:17:53.275Z,2.85
2023-01-28T01:32:53.080Z,2.11
2023-01-28T01:47:53.072Z,2.31
2023-01-28T02:02:52.911Z,2.52
2023-01-28T02:17:53.022Z,2.09
2023-01-28T02:32:52.810Z,1.58
2023-01-28T02:47:52.891Z,1.79
2023-01-28T03:02:52.985Z,1.22
2023-01-28T03:17:52.949Z,1.13
2023-01-28T03:32:53.056Z,1.36
2023-01-28T03:47:52.941Z,1.67
2023-01-28T04:02:53.047Z,1.34
2023-01-28T04:17:52.948Z,2.02
2023-01-28T04:32:52.905Z,1.69
2023-01-28T04:47:53.030Z,1.52
2023-01-28T05:02:53.035Z,0.85
2023-01-28T05:17:52.846Z,1.71
2023-01-28T05:32:53.283Z,1.18
2023-01-28T05:47:52.920Z,1.74
2023-01-28T06:02:53.016Z,1.81
2023-01-28T06:17:53.086Z,1.84
2023-01-28T06:32:52.959Z,1.27
2023-01-28T06:47:53.218Z,1.89
2023-01-28T07:02:52.956Z,2.13
2023-01-28T07:17:53.068Z,2.12
2023-01-28T07:32:53.333Z,1.82
2023-01-28T07:47:53.258Z,1.02
2023-01-28T08:02:53.378Z,1.27
2023-01-28T08:17:52.950Z,1.90
2023-01-28T08:32:53.053Z,1.23
2023-01-28T08:47:53.150Z,1.44
2023-01-28T09:02:53.674Z,1.97
2023-01-28T09:17:53.136Z,1.87
2023-01-28T09:32:53.332Z,1.88
2023-01-28T09:47:52.926Z,2.09
2023-01-28T10:02:52.972Z,1.88
2023-01-28T10:18:03.880Z,1.90
2023-01-28T10:32:53.310Z,1.55
2023-01-28T10:47:53.350Z,2.41
2023-01-28T11:02:53.116Z,2.25
2023-01-28T11:17:53.286Z,1.65
2023-01-28T11:32:53.066Z,1.80
2023-01-28T11:47:53.079Z,2.50
2023-01-28T12:02:53.087Z,3.45
2023-01-28T12:17:53.299Z,1.74
2023-01-28T12:32:53.111Z,1.65
2023-01-28T12:47:53.274Z,2.06
2023-01-28T13:02:53.115Z,1.46
2023-01-28T13:17:53.074Z,0.96
2023-01-28T13:32:53.280Z,1.55
2023-01-28T13:47:53.255Z,1.07
2023-01-28T14:02:53.033Z,1.53
2023-01-28T14:17:53.126Z,1.04
2023-01-28T14:32:54.234Z,1.03
2023-01-28T14:47:53.340Z,1.30
2023-01-28T15:02:53.173Z,1.14
2023-01-28T15:17:53.310Z,0.67
2023-01-28T15:32:53.273Z,0.86
2023-01-28T15:47:53.309Z,1.14
2023-01-28T16:02:53.217Z,1.57
2023-01-28T16:17:53.191Z,1.16
2023-01-28T16:32:53.241Z,0.99
2023-01-28T16:47:53.025Z,0.53
2023-01-28T17:02:53.210Z,0.67
2023-01-28T17:17:53.345Z,0.41
2023-01-28T17:32:53.108Z,0.00
2023-01-28T17:47:53.181Z,0.00
2023-01-28T18:02:53.395Z,0.00
2023-01-28T18:17:53.171Z,0.04
2023-01-28T18:32:53.486Z,0.01
2023-01-28T18:47:53.362Z,0.21
2023-01-28T19:02:53.172Z,0.01
2023-01-28T19:17:53.028Z,0.09
2023-01-28T19:32:53.403Z,0.00
2023-01-28T19:47:53.392Z,0.03
2023-01-28T20:02:53.460Z,0.00
2023-01-28T20:17:53.141Z,0.00
2023-01-28T20:32:53.075Z,0.02
2023-01-28T20:47:53.210Z,0.05
2023-01-28T21:02:53.294Z,0.12
2023-01-28T21:17:53.520Z,0.11
2023-01-28T21:32:53.095Z,0.16
2023-01-28T21:47:53.158Z,0.06
2023-01-28T22:02:53.240Z,0.02
2023-01-28T22:17:53.103Z,0.02
2023-01-28T22:32:53.309Z,0.00
2023-01-28T22:47:53.329Z,0.02
2023-01-28T23:02:53.310Z,0.05
2023-01-28T23:17:53.848Z,0.00
2023-01-28T23:32:53.046Z,0.02
2023-01-28T23:47:53.116Z,0.12
